createdAt,value
2019-02-18T00:01:03.327Z,13.63
2019-02-18T00:03:32.917Z,15.00
2019-02-18T00:06:03.584Z,13.03
2019-02-18T00:08:33.209Z,17.40
2019-02-18T00:11:02.810Z,14.67
2019-02-18T00:13:32.506Z,16.37
2019-02-18T00:16:02.292Z,16.90
2019-02-18T00:18:31.894Z,17.23
2019-02-18T00:21:01.491Z,13.90
2019-02-18T00:23:31.120Z,23.90
2019-02-18T00:26:00.744Z,15.07
2019-02-18T00:28:30.352Z,14.20
2019-02-18T00:30:59.991Z,15.10
2019-02-18T00:33:30.260Z,23.10
2019-02-18T00:35:59.849Z,13.10
2019-02-18T00:38:29.474Z,22.97
2019-02-18T00:40:59.112Z,13.73
2019-02-18T00:43:28.733Z,18.37
2019-02-18T00:45:58.342Z,17.57
2019-02-18T00:48:27.963Z,18.63
2019-02-18T00:50:57.862Z,13.73
2019-02-18T00:53:27.461Z,17.73
2019-02-18T00:55:57.089Z,10.60
2019-02-18T00:58:26.725Z,31.00
2019-02-18T01:00:57.394Z,13.13
2019-02-18T01:03:26.998Z,22.33
2019-02-18T01:05:56.692Z,13.97
2019-02-18T01:08:26.341Z,13.57
2019-02-18T01:10:56.009Z,17.03
2019-02-18T01:13:25.605Z,16.03
2019-02-18T01:15:55.297Z,9.93
2019-02-18T01:18:26.567Z,14.97
2019-02-18T01:20:56.264Z,12.57
2019-02-18T01:23:25.890Z,15.47
2019-02-18T01:25:55.491Z,15.97
2019-02-18T01:28:25.203Z,21.27
2019-02-18T01:30:54.822Z,11.70
2019-02-18T01:33:24.421Z,15.80
2019-02-18T01:35:54.048Z,16.47
2019-02-18T01:38:23.685Z,14.60
2019-02-18T01:40:53.315Z,16.83
2019-02-18T01:43:22.918Z,14.37
2019-02-18T01:45:53.400Z,14.57
2019-02-18T01:48:23.100Z,13.47
2019-02-18T01:50:52.797Z,12.60
2019-02-18T01:53:22.414Z,17.37
2019-02-18T01:55:52.061Z,18.10
2019-02-18T01:58:21.663Z,15.23
2019-02-18T02:00:51.278Z,14.17
2019-02-18T02:03:20.874Z,17.73
2019-02-18T02:05:50.639Z,19.57
2019-02-18T02:08:20.247Z,14.57
2019-02-18T02:10:49.876Z,20.03
2019-02-18T02:13:29.082Z,28.57
2019-02-18T02:16:00.024Z,15.50
2019-02-18T02:18:29.617Z,13.00
2019-02-18T02:20:59.420Z,13.97
2019-02-18T02:23:29.047Z,22.77
2019-02-18T02:25:58.645Z,18.23
2019-02-18T02:28:28.275Z,11.37
2019-02-18T02:31:00.665Z,21.70
2019-02-18T02:33:29.201Z,17.53
2019-02-18T02:35:58.859Z,17.37
2019-02-18T02:38:28.900Z,18.43
2019-02-18T02:40:58.525Z,14.87
2019-02-18T02:43:28.857Z,13.20
2019-02-18T02:45:58.501Z,22.97
2019-02-18T02:48:28.091Z,16.10
2019-02-18T02:50:57.723Z,17.07
2019-02-18T02:53:27.321Z,16.40
2019-02-18T02:55:56.926Z,10.60
2019-02-18T02:58:26.553Z,19.93
2019-02-18T03:00:56.324Z,18.47
2019-02-18T03:03:25.960Z,13.90
2019-02-18T03:05:55.651Z,18.13
2019-02-18T03:08:25.282Z,14.27
2019-02-18T03:10:54.876Z,13.10
2019-02-18T03:13:24.509Z,18.30
2019-02-18T03:15:54.113Z,15.80
2019-02-18T03:18:23.745Z,11.03
2019-02-18T03:20:53.344Z,7.70
2019-02-18T03:23:23.019Z,16.83
2019-02-18T03:25:52.738Z,17.17
2019-02-18T03:28:32.499Z,14.07
2019-02-18T03:31:09.263Z,16.10
2019-02-18T03:33:46.781Z,18.17
2019-02-18T03:36:16.414Z,13.50
2019-02-18T03:38:46.014Z,20.37
2019-02-18T03:41:16.283Z,18.87
2019-02-18T03:43:46.025Z,16.83
2019-02-18T03:46:15.635Z,19.90
2019-02-18T03:48:45.278Z,22.70
2019-02-18T03:51:15.432Z,20.67
2019-02-18T03:53:45.061Z,12.07
2019-02-18T03:56:14.691Z,18.53
2019-02-18T03:58:44.285Z,15.53
2019-02-18T04:01:14.280Z,11.23
2019-02-18T04:03:44.010Z,17.27
2019-02-18T04:06:13.679Z,17.70
2019-02-18T04:08:43.479Z,15.90
2019-02-18T04:11:13.091Z,18.37
2019-02-18T04:13:42.715Z,9.27
2019-02-18T04:16:12.314Z,12.80
2019-02-18T04:18:41.942Z,21.67
2019-02-18T04:21:11.547Z,15.30
2019-02-18T04:23:41.169Z,21.90
2019-02-18T04:26:10.780Z,10.07
2019-02-18T04:28:40.962Z,16.63
2019-02-18T04:31:10.556Z,29.03
2019-02-18T04:33:40.189Z,17.27
2019-02-18T04:36:09.786Z,11.87
2019-02-18T04:38:39.410Z,19.63
2019-02-18T04:41:09.006Z,24.23
2019-02-18T04:43:38.633Z,12.40
2019-02-18T04:46:08.247Z,18.67
2019-02-18T04:48:37.878Z,10.20
2019-02-18T04:51:07.478Z,11.70
2019-02-18T04:53:37.076Z,17.00
2019-02-18T04:56:06.725Z,13.17
2019-02-18T04:58:36.569Z,15.70
2019-02-18T05:01:06.182Z,8.40
2019-02-18T05:03:35.797Z,19.47
2019-02-18T05:06:05.419Z,18.60
2019-02-18T05:08:35.018Z,12.30
2019-02-18T05:11:04.649Z,13.27
2019-02-18T05:13:34.334Z,12.27
2019-02-18T05:16:03.984Z,14.13
2019-02-18T05:18:33.568Z,12.03
2019-02-18T05:21:03.189Z,6.73
2019-02-18T05:23:32.809Z,14.13
2019-02-18T05:26:02.687Z,16.03
2019-02-18T05:28:34.186Z,13.93
2019-02-18T05:31:03.867Z,10.87
2019-02-18T05:33:33.481Z,13.67
2019-02-18T05:36:03.082Z,15.73
2019-02-18T05:38:32.717Z,11.17
2019-02-18T05:41:02.340Z,26.53
2019-02-18T05:43:32.040Z,14.43
2019-02-18T05:46:01.638Z,16.90
2019-02-18T05:48:33.938Z,9.60
2019-02-18T05:51:02.616Z,8.47
2019-02-18T05:53:32.294Z,23.47
2019-02-18T05:56:01.928Z,10.93
2019-02-18T05:58:31.524Z,16.33
2019-02-18T06:01:01.148Z,6.20
2019-02-18T06:03:31.108Z,12.97
2019-02-18T06:06:00.745Z,13.40
2019-02-18T06:08:30.390Z,8.70
2019-02-18T06:11:00.018Z,15.17
2019-02-18T06:13:29.623Z,13.23
2019-02-18T06:15:59.258Z,17.07
2019-02-18T06:18:28.861Z,16.30
2019-02-18T06:20:58.494Z,32.43
2019-02-18T06:23:28.364Z,27.40
2019-02-18T06:25:58.260Z,14.53
2019-02-18T06:28:27.853Z,18.43
2019-02-18T06:30:57.485Z,14.30
2019-02-18T06:33:28.385Z,18.27
2019-02-18T06:35:58.188Z,12.13
2019-02-18T06:38:27.786Z,15.53
2019-02-18T06:40:57.483Z,8.43
2019-02-18T06:43:27.104Z,9.97
2019-02-18T06:45:58.370Z,10.27
2019-02-18T06:48:35.073Z,18.07
2019-02-18T06:51:04.842Z,13.40
2019-02-18T06:53:34.550Z,12.37
2019-02-18T06:56:04.139Z,16.90
2019-02-18T06:58:33.536Z,23.50
2019-02-18T07:01:07.448Z,11.93
2019-02-18T07:03:38.714Z,21.30
2019-02-18T07:06:10.932Z,23.97
2019-02-18T07:08:56.066Z,24.13
2019-02-18T07:11:27.054Z,22.43
2019-02-18T07:13:56.879Z,20.77
2019-02-18T07:16:26.575Z,16.90
2019-02-18T07:18:56.954Z,19.77
2019-02-18T07:21:26.548Z,15.73
2019-02-18T07:23:56.157Z,17.00
2019-02-18T07:26:26.027Z,16.33
2019-02-18T07:28:55.645Z,22.97
2019-02-18T07:31:25.486Z,19.47
2019-02-18T07:33:55.107Z,23.67
2019-02-18T07:36:24.703Z,19.87
2019-02-18T07:38:54.323Z,26.73
2019-02-18T07:41:23.920Z,32.37
2019-02-18T07:43:53.554Z,41.27
2019-02-18T07:46:23.144Z,32.13
2019-02-18T07:48:52.776Z,37.03
2019-02-18T07:51:22.373Z,36.53
2019-02-18T07:53:52.225Z,58.83
2019-02-18T07:56:22.098Z,32.80
2019-02-18T07:58:52.491Z,27.27
2019-02-18T08:01:22.076Z,28.33
2019-02-18T08:03:52.173Z,30.27
2019-02-18T08:06:21.782Z,35.67
2019-02-18T08:08:52.133Z,44.47
2019-02-18T08:11:21.751Z,23.07
2019-02-18T08:13:51.343Z,30.87
2019-02-18T08:16:21.029Z,28.53
2019-02-18T08:18:50.646Z,33.80
2019-02-18T08:21:22.059Z,34.57
2019-02-18T08:23:59.664Z,34.83
2019-02-18T08:26:24.019Z,30.53
2019-02-18T08:28:53.757Z,29.37
2019-02-18T08:31:23.415Z,26.83
2019-02-18T08:33:53.771Z,32.00
2019-02-18T08:36:24.027Z,32.77
2019-02-18T08:38:53.656Z,22.17
2019-02-18T08:41:23.280Z,27.80
2019-02-18T08:43:54.828Z,24.50
2019-02-18T08:46:24.512Z,30.50
2019-02-18T08:48:54.205Z,30.07
2019-02-18T08:51:24.385Z,21.93
2019-02-18T08:53:54.741Z,37.17
2019-02-18T08:56:24.735Z,26.30
2019-02-18T08:58:54.319Z,25.77
2019-02-18T09:01:24.414Z,25.17
2019-02-18T09:03:54.253Z,34.80
2019-02-18T09:06:25.229Z,33.87
2019-02-18T09:08:54.855Z,36.27
2019-02-18T09:11:24.476Z,26.87
2019-02-18T09:13:54.072Z,38.17
2019-02-18T09:16:23.999Z,20.77
2019-02-18T09:18:53.614Z,23.40
2019-02-18T09:21:23.215Z,25.27
2019-02-18T09:23:54.469Z,32.10
2019-02-18T09:26:24.067Z,28.27
2019-02-18T09:28:53.690Z,26.07
2019-02-18T09:31:24.922Z,29.43
2019-02-18T09:33:54.512Z,44.57
2019-02-18T09:36:24.133Z,30.17
2019-02-18T09:38:53.751Z,27.20
2019-02-18T09:41:23.594Z,28.37
2019-02-18T09:43:53.214Z,24.23
2019-02-18T09:46:22.878Z,18.30
2019-02-18T09:48:52.499Z,24.07
2019-02-18T09:51:22.096Z,29.97
2019-02-18T09:53:51.796Z,24.03
2019-02-18T09:56:21.420Z,31.27
2019-02-18T09:58:51.326Z,26.37
2019-02-18T10:01:21.033Z,25.33
2019-02-18T10:03:50.633Z,21.93
2019-02-18T10:06:20.263Z,28.47
2019-02-18T10:08:50.664Z,22.47
2019-02-18T10:11:20.265Z,48.83
2019-02-18T10:13:49.936Z,23.77
2019-02-18T10:16:19.569Z,21.13
2019-02-18T10:18:49.249Z,31.37
2019-02-18T10:21:19.648Z,21.40
2019-02-18T10:23:49.280Z,27.27
2019-02-18T10:26:18.876Z,22.07
2019-02-18T10:28:48.797Z,19.63
2019-02-18T10:31:18.447Z,18.77
2019-02-18T10:33:48.070Z,24.13
2019-02-18T10:36:19.049Z,17.83
2019-02-18T10:38:48.646Z,23.10
2019-02-18T10:41:19.331Z,30.07
2019-02-18T10:43:49.029Z,20.47
2019-02-18T10:46:18.665Z,15.37
2019-02-18T10:48:48.271Z,22.83
2019-02-18T10:51:17.870Z,22.73
2019-02-18T10:53:47.500Z,20.17
2019-02-18T10:56:17.126Z,21.33
2019-02-18T10:58:46.902Z,16.77
2019-02-18T11:01:16.541Z,14.17
2019-02-18T11:03:46.376Z,17.93
2019-02-18T11:06:16.048Z,13.63
2019-02-18T11:08:45.678Z,11.10
2019-02-18T11:11:17.237Z,19.13
2019-02-18T11:13:46.625Z,13.70
2019-02-18T11:16:16.510Z,16.20
2019-02-18T11:18:46.140Z,15.80
2019-02-18T11:21:16.572Z,20.97
2019-02-18T11:23:46.173Z,12.67
2019-02-18T11:26:16.027Z,16.30
2019-02-18T11:28:45.871Z,20.00
2019-02-18T11:31:15.515Z,15.17
2019-02-18T11:33:45.393Z,17.00
2019-02-18T11:36:15.474Z,18.70
2019-02-18T11:38:45.112Z,18.57
2019-02-18T11:41:14.711Z,18.83
2019-02-18T11:43:44.314Z,11.60
2019-02-18T11:46:13.949Z,17.03
2019-02-18T11:48:43.613Z,14.27
2019-02-18T11:51:13.322Z,14.20
2019-02-18T11:53:43.186Z,23.23
2019-02-18T11:56:12.790Z,17.70
2019-02-18T11:58:42.421Z,16.57
2019-02-18T12:01:12.217Z,21.60
2019-02-18T12:03:41.849Z,12.30
2019-02-18T12:06:11.659Z,18.23
2019-02-18T12:08:41.258Z,15.43
2019-02-18T12:11:15.218Z,12.73
2019-02-18T12:13:45.399Z,16.40
2019-02-18T12:16:15.001Z,20.03
2019-02-18T12:18:46.515Z,15.63
2019-02-18T12:21:16.114Z,21.63
2019-02-18T12:23:46.286Z,16.07
2019-02-18T12:26:15.904Z,24.03
2019-02-18T12:28:45.504Z,13.33
2019-02-18T12:31:15.134Z,20.57
2019-02-18T12:33:44.815Z,18.33
2019-02-18T12:36:14.443Z,15.37
2019-02-18T12:38:44.043Z,25.90
2019-02-18T12:41:13.672Z,18.00
2019-02-18T12:43:44.407Z,27.70
2019-02-18T12:46:16.044Z,15.00
2019-02-18T12:48:45.355Z,30.13
2019-02-18T12:51:15.299Z,22.83
2019-02-18T12:53:46.288Z,23.60
2019-02-18T12:56:17.019Z,17.93
2019-02-18T12:58:54.468Z,25.57
2019-02-18T13:01:18.273Z,24.37
2019-02-18T13:03:48.377Z,12.30
2019-02-18T13:06:17.977Z,14.90
2019-02-18T13:08:48.177Z,15.90
2019-02-18T13:11:17.777Z,14.67
2019-02-18T13:13:47.401Z,15.07
2019-02-18T13:16:17.108Z,16.23
2019-02-18T13:18:46.734Z,16.63
2019-02-18T13:21:17.689Z,27.87
2019-02-18T13:23:47.386Z,12.17
2019-02-18T13:26:17.081Z,19.70
2019-02-18T13:28:46.687Z,24.27
2019-02-18T13:31:16.658Z,22.07
2019-02-18T13:33:46.265Z,19.77
2019-02-18T13:36:16.393Z,15.50
2019-02-18T13:38:46.094Z,22.57
2019-02-18T13:41:15.694Z,20.63
2019-02-18T13:43:45.322Z,18.83
2019-02-18T13:46:15.171Z,12.67
2019-02-18T13:48:44.805Z,18.13
2019-02-18T13:51:14.637Z,13.87
2019-02-18T13:53:44.278Z,14.33
2019-02-18T13:56:14.070Z,16.10
2019-02-18T13:58:43.675Z,20.63
2019-02-18T14:01:13.374Z,15.97
2019-02-18T14:03:42.973Z,17.70
2019-02-18T14:06:12.679Z,15.73
2019-02-18T14:08:43.097Z,25.00
2019-02-18T14:11:12.702Z,20.10
2019-02-18T14:13:42.402Z,11.27
2019-02-18T14:16:12.101Z,10.13
2019-02-18T14:18:41.814Z,17.00
2019-02-18T14:21:11.881Z,15.07
2019-02-18T14:23:41.486Z,13.10
2019-02-18T14:26:12.188Z,13.97
2019-02-18T14:28:43.608Z,22.27
2019-02-18T14:31:14.000Z,15.47
2019-02-18T14:33:43.603Z,11.80
2019-02-18T14:36:13.301Z,11.40
2019-02-18T14:38:43.095Z,19.17
2019-02-18T14:41:12.834Z,19.00
2019-02-18T14:43:42.434Z,12.53
2019-02-18T14:46:12.070Z,13.33
2019-02-18T14:48:41.676Z,15.70
2019-02-18T14:51:11.421Z,20.67
2019-02-18T14:53:41.049Z,15.47
2019-02-18T14:56:11.053Z,12.63
2019-02-18T14:58:40.741Z,11.70
2019-02-18T15:01:10.786Z,13.13
2019-02-18T15:03:40.422Z,19.03
2019-02-18T15:06:10.185Z,13.87
2019-02-18T15:08:39.878Z,16.43
2019-02-18T15:11:09.964Z,17.87
2019-02-18T15:13:39.657Z,14.27
2019-02-18T15:16:09.354Z,14.60
2019-02-18T15:18:38.963Z,16.80
2019-02-18T15:21:08.663Z,13.83
2019-02-18T15:23:38.359Z,18.33
2019-02-18T15:26:08.308Z,15.70
2019-02-18T15:28:37.972Z,15.90
2019-02-18T15:31:07.813Z,20.27
2019-02-18T15:33:37.409Z,24.53
2019-02-18T15:36:07.250Z,13.47
2019-02-18T15:38:36.916Z,14.73
2019-02-18T15:41:06.684Z,14.47
2019-02-18T15:43:36.283Z,12.27
2019-02-18T15:46:06.123Z,15.93
2019-02-18T15:48:36.447Z,19.30
2019-02-18T15:51:06.350Z,26.53
2019-02-18T15:53:36.324Z,13.73
2019-02-18T15:56:06.080Z,17.67
2019-02-18T15:58:35.684Z,11.07
2019-02-18T16:01:06.552Z,23.87
2019-02-18T16:03:36.177Z,14.33
2019-02-18T16:06:05.810Z,11.13
2019-02-18T16:08:35.695Z,19.13
2019-02-18T16:11:05.401Z,52.27
2019-02-18T16:13:35.002Z,34.47
2019-02-18T16:16:04.774Z,59.47
2019-02-18T16:18:34.377Z,54.40
2019-02-18T16:21:04.141Z,70.63
2019-02-18T16:23:33.922Z,63.30
2019-02-18T16:26:03.557Z,64.40
2019-02-18T16:28:33.160Z,63.07
2019-02-18T16:31:02.794Z,82.50
2019-02-18T16:33:32.410Z,64.67
2019-02-18T16:36:02.025Z,66.57
2019-02-18T16:38:31.640Z,67.00
2019-02-18T16:41:01.261Z,61.50
2019-02-18T16:43:31.109Z,58.70
2019-02-18T16:46:00.727Z,59.80
2019-02-18T16:48:30.639Z,58.77
2019-02-18T16:51:00.515Z,49.30
2019-02-18T16:53:30.110Z,50.60
2019-02-18T16:55:59.735Z,38.63
2019-02-18T16:58:29.323Z,42.37
2019-02-18T17:00:59.258Z,49.37
2019-02-18T17:03:28.848Z,44.90
2019-02-18T17:05:58.654Z,45.77
2019-02-18T17:08:28.250Z,45.67
2019-02-18T17:10:57.873Z,42.30
2019-02-18T17:13:27.503Z,41.87
2019-02-18T17:15:57.092Z,42.60
2019-02-18T17:18:26.718Z,33.27
2019-02-18T17:20:56.458Z,42.17
2019-02-18T17:23:26.081Z,48.03
2019-02-18T17:25:55.675Z,51.07
2019-02-18T17:28:25.309Z,47.33
2019-02-18T17:30:54.900Z,39.00
2019-02-18T17:33:24.596Z,52.17
2019-02-18T17:35:54.261Z,39.77
2019-02-18T17:38:23.880Z,35.80
2019-02-18T17:40:53.474Z,28.23
2019-02-18T17:43:23.096Z,51.17
2019-02-18T17:45:52.999Z,47.57
2019-02-18T17:48:22.593Z,38.17
2019-02-18T17:50:52.217Z,33.97
2019-02-18T17:53:21.812Z,38.20
2019-02-18T17:55:51.440Z,43.93
2019-02-18T17:58:21.060Z,26.83
2019-02-18T18:00:52.300Z,33.70
2019-02-18T18:03:22.555Z,30.00
2019-02-18T18:05:52.185Z,35.37
2019-02-18T18:08:21.959Z,37.90
2019-02-18T18:10:51.812Z,41.27
2019-02-18T18:13:25.191Z,32.73
2019-02-18T18:15:52.858Z,31.83
2019-02-18T18:18:22.727Z,33.47
2019-02-18T18:20:52.606Z,29.13
2019-02-18T18:23:22.226Z,31.53
2019-02-18T18:25:51.822Z,37.33
2019-02-18T18:28:21.444Z,43.10
2019-02-18T18:30:51.073Z,31.73
2019-02-18T18:33:20.883Z,30.50
2019-02-18T18:35:50.546Z,25.43
2019-02-18T18:38:20.140Z,33.63
2019-02-18T18:40:49.766Z,33.43
2019-02-18T18:43:19.452Z,35.03
2019-02-18T18:45:49.046Z,39.20
2019-02-18T18:48:18.673Z,32.40
2019-02-18T18:50:48.267Z,36.27
2019-02-18T18:53:17.895Z,34.10
2019-02-18T18:55:47.518Z,35.57
2019-02-18T18:58:17.114Z,43.17
2019-02-18T19:00:47.118Z,28.17
2019-02-18T19:03:16.736Z,35.50
2019-02-18T19:05:46.355Z,25.63
2019-02-18T19:08:16.206Z,43.73
2019-02-18T19:10:46.391Z,32.77
2019-02-18T19:13:16.015Z,31.67
2019-02-18T19:15:49.664Z,33.73
2019-02-18T19:18:16.980Z,35.60
2019-02-18T19:20:46.639Z,33.03
2019-02-18T19:23:16.259Z,27.47
2019-02-18T19:25:45.883Z,25.40
2019-02-18T19:28:15.753Z,35.53
2019-02-18T19:30:45.349Z,34.83
2019-02-18T19:33:32.920Z,28.87
2019-02-18T19:36:02.515Z,31.70
2019-02-18T19:38:32.418Z,33.67
2019-02-18T19:41:02.017Z,35.37
2019-02-18T19:43:31.641Z,35.97
2019-02-18T19:46:01.270Z,31.97
2019-02-18T19:48:30.918Z,42.03
2019-02-18T19:51:00.512Z,38.50
2019-02-18T19:53:30.106Z,31.80
2019-02-18T19:55:59.724Z,34.53
2019-02-18T19:58:29.388Z,33.00
2019-02-18T20:00:59.011Z,37.67
2019-02-18T20:03:28.632Z,37.80
2019-02-18T20:05:58.226Z,36.87
2019-02-18T20:08:27.847Z,43.63
2019-02-18T20:10:57.443Z,34.80
2019-02-18T20:13:27.066Z,40.63
2019-02-18T20:15:56.661Z,34.73
2019-02-18T20:18:27.455Z,46.63
2019-02-18T20:20:57.318Z,35.97
2019-02-18T20:23:26.948Z,33.83
2019-02-18T20:25:56.832Z,34.10
2019-02-18T20:28:26.485Z,33.20
2019-02-18T20:30:56.111Z,34.67
2019-02-18T20:33:25.722Z,30.63
2019-02-18T20:35:55.339Z,28.17
2019-02-18T20:38:25.020Z,26.97
2019-02-18T20:40:54.934Z,28.00
2019-02-18T20:43:24.537Z,24.70
2019-02-18T20:45:54.158Z,26.33
2019-02-18T20:48:25.687Z,33.83
2019-02-18T20:50:55.288Z,33.57
2019-02-18T20:53:24.889Z,23.57
2019-02-18T20:55:54.511Z,30.83
2019-02-18T20:58:24.173Z,40.97
2019-02-18T21:00:55.668Z,34.00
2019-02-18T21:03:25.291Z,18.70
2019-02-18T21:05:54.887Z,32.87
2019-02-18T21:08:24.811Z,37.80
2019-02-18T21:10:54.408Z,24.10
2019-02-18T21:13:24.035Z,36.10
2019-02-18T21:15:53.940Z,34.40
2019-02-18T21:18:23.606Z,28.57
2019-02-18T21:20:53.215Z,29.60
2019-02-18T21:23:22.835Z,26.60
2019-02-18T21:25:52.478Z,32.07
2019-02-18T21:28:22.069Z,27.47
2019-02-18T21:30:51.939Z,27.17
2019-02-18T21:33:21.577Z,27.77
2019-02-18T21:35:51.167Z,30.93
2019-02-18T21:38:20.802Z,28.73
2019-02-18T21:40:50.520Z,27.83
2019-02-18T21:43:20.114Z,23.27
2019-02-18T21:45:49.901Z,29.27
2019-02-18T21:48:19.495Z,23.47
2019-02-18T21:50:49.782Z,26.87
2019-02-18T21:53:19.474Z,24.27
2019-02-18T21:55:49.327Z,23.73
2019-02-18T21:58:19.796Z,28.53
2019-02-18T22:00:49.406Z,29.80
2019-02-18T22:03:18.995Z,21.93
2019-02-18T22:05:48.611Z,26.73
2019-02-18T22:08:18.202Z,21.83
2019-02-18T22:10:47.888Z,31.53
2019-02-18T22:13:17.784Z,20.53
2019-02-18T22:15:47.412Z,29.57
2019-02-18T22:18:17.604Z,25.37
2019-02-18T22:20:47.194Z,27.33
2019-02-18T22:23:16.813Z,24.33
2019-02-18T22:25:46.409Z,29.80
2019-02-18T22:28:16.028Z,23.50
2019-02-18T22:30:46.314Z,37.60
2019-02-18T22:33:15.922Z,22.70
2019-02-18T22:35:45.553Z,24.30
2019-02-18T22:38:15.140Z,25.67
2019-02-18T22:40:44.753Z,20.67
2019-02-18T22:43:14.341Z,21.73
2019-02-18T22:45:43.957Z,26.73
2019-02-18T22:48:13.576Z,25.00
2019-02-18T22:50:43.203Z,25.87
2019-02-18T22:53:12.797Z,22.33
2019-02-18T22:55:42.867Z,23.93
2019-02-18T22:58:12.497Z,22.57
2019-02-18T23:00:56.965Z,30.77
2019-02-18T23:03:26.868Z,30.40
2019-02-18T23:05:56.551Z,20.67
2019-02-18T23:08:26.274Z,24.90
2019-02-18T23:10:56.029Z,22.43
2019-02-18T23:13:25.619Z,17.83
2019-02-18T23:15:56.508Z,24.13
2019-02-18T23:18:26.183Z,25.87
2019-02-18T23:20:55.778Z,21.50
2019-02-18T23:23:25.402Z,16.70
2019-02-18T23:25:55.039Z,17.30
2019-02-18T23:28:24.642Z,29.33
2019-02-18T23:30:54.237Z,26.97
2019-02-18T23:33:23.858Z,18.50
2019-02-18T23:35:53.457Z,28.03
2019-02-18T23:38:23.074Z,26.53
2019-02-18T23:40:52.663Z,23.67
2019-02-18T23:43:22.264Z,19.57
2019-02-18T23:45:51.890Z,23.87
2019-02-18T23:48:21.489Z,22.73
2019-02-18T23:50:51.125Z,18.50
2019-02-18T23:53:20.797Z,18.50
2019-02-18T23:55:50.420Z,24.27
2019-02-18T23:58:20.018Z,16.13
